Time;durP1;ratioP1;P1;durP2;ratioP2;P2;SDS_P1;SDS_P2;PMS_P1;PMS_P2;Temp;Humidity;BMP_temperature;BMP_pressure;BME280_temperature;BME280_humidity;BME280_pressure;Samples;Min_cycle;Max_cycle;Signal;HPM_P1;HPM_P2
2022/06/10 00:00:31;;;;;;;;;28.00;20.25;;;;;-146.59;100.00;59519.28;4961796;28;51210;-46
2022/06/10 00:03:20;;;;;;;;;21.50;19.00;;;;;-146.59;100.00;59519.28;4961598;28;51504;-45
2022/06/10 00:06:08;;;;;;;;;27.50;20.00;;;;;-146.59;100.00;59519.28;4961564;28;51301;-44
2022/06/10 00:08:57;;;;;;;;;26.25;22.00;;;;;-146.59;100.00;59519.28;4962115;28;51165;-44
2022/06/10 00:11:55;;;;;;;;;28.25;23.00;;;;;-146.59;100.00;59519.28;4961665;28;51173;-44
2022/06/10 00:14:43;;;;;;;;;27.25;22.50;;;;;-146.59;100.00;59519.28;4961511;28;51060;-43
2022/06/10 00:17:29;;;;;;;;;26.50;21.25;;;;;-146.59;100.00;59519.28;4960490;28;51054;-44
2022/06/10 00:20:22;;;;;;;;;22.50;18.50;;;;;-146.59;100.00;59519.28;4960857;28;51227;-46
2022/06/10 00:23:08;;;;;;;;;29.75;24.00;;;;;-146.59;100.00;59519.28;4946321;28;51125;-43
2022/06/10 00:26:05;;;;;;;;;30.00;24.50;;;;;-146.59;100.00;59519.28;4961297;28;51156;-42
2022/06/10 00:28:53;;;;;;;;;33.75;26.75;;;;;-146.59;100.00;59519.28;4946825;28;51215;-42
2022/06/10 00:32:02;;;;;;;;;32.75;25.75;;;;;-146.59;100.00;59519.28;4961076;28;51290;-46
2022/06/10 00:34:54;;;;;;;;;30.75;25.00;;;;;-146.59;100.00;59519.28;4960931;28;52164;-44
2022/06/10 00:37:41;;;;;;;;;36.50;28.00;;;;;-146.59;100.00;59519.28;4961236;28;51059;-44
2022/06/10 00:40:49;;;;;;;;;30.75;26.25;;;;;-146.59;100.00;59519.28;4960962;28;51445;-42
2022/06/10 00:43:41;;;;;;;;;28.75;26.50;;;;;-146.59;100.00;59519.28;4960896;28;51205;-43
2022/06/10 00:46:37;;;;;;;;;25.75;22.50;;;;;-146.59;100.00;59519.28;4960445;28;51147;-44
2022/06/10 00:49:24;;;;;;;;;26.25;24.00;;;;;-146.59;100.00;59519.28;4960725;28;51078;-44
2022/06/10 00:52:24;;;;;;;;;33.25;26.50;;;;;-146.59;100.00;59519.28;4960741;28;51166;-44
2022/06/10 00:55:12;;;;;;;;;21.50;18.00;;;;;-146.59;100.00;59519.28;4960931;28;51146;-43
2022/06/10 00:58:09;;;;;;;;;31.50;25.25;;;;;-146.59;100.00;59519.28;4960669;28;51141;-42
2022/06/10 01:01:09;;;;;;;;;32.50;24.75;;;;;-146.59;100.00;59519.28;4946296;28;51120;-43
2022/06/10 01:03:56;;;;;;;;;33.50;26.75;;;;;-146.59;100.00;59519.28;4960296;28;51481;-44
2022/06/10 01:06:53;;;;;;;;;29.25;24.50;;;;;-146.59;100.00;59519.28;4960559;28;51117;-44
2022/06/10 01:09:50;;;;;;;;;31.50;25.75;;;;;-146.59;100.00;59519.28;4960516;28;51039;-46
2022/06/10 01:13:20;;;;;;;;;28.75;24.50;;;;;-146.59;100.00;59519.28;4945703;28;51163;-43
2022/06/10 01:16:47;;;;;;;;;30.25;26.50;;;;;-146.59;100.00;59519.28;4938275;28;51908;-43
2022/06/10 01:20:09;;;;;;;;;30.75;23.50;;;;;-146.59;100.00;59519.28;4959540;28;51154;-42
2022/06/10 01:23:32;;;;;;;;;28.25;22.50;;;;;-146.59;100.00;59519.28;4957810;28;51111;-46
2022/06/10 01:30:01;;;;;;;;;23.00;22.25;;;;;-146.59;100.00;59519.28;4960886;28;51393;-44
2022/06/10 01:33:17;;;;;;;;;24.00;23.25;;;;;-146.59;100.00;59519.28;4960316;28;51207;-45
2022/06/10 08:45:01;;;;;;;;;30.00;25.00;;;;;;;;3629529;32;25515146;-42
2022/06/10 08:48:41;;;;;;;;;31.00;29.50;;;;;;;;5142774;27;8772;-47
2022/06/10 08:51:46;;;;;;;;;22.75;18.25;;;;;;;;5124730;27;8769;-46
2022/06/10 08:54:40;;;;;;;;;18.50;14.25;;;;;;;;5155007;27;8796;-44
2022/06/10 08:57:54;;;;;;;;;17.25;14.00;;;;;;;;5146270;27;9589;-47
2022/06/10 09:00:43;;;;;;;;;18.25;12.00;;;;;;;;5154602;27;8796;-47
2022/06/10 09:03:35;;;;;;;;;14.75;13.75;;;;;;;;5155528;27;8773;-47
2022/06/10 09:06:30;;;;;;;;;11.25;7.75;;;;;;;;5155052;27;8796;-41
2022/06/10 09:09:16;;;;;;;;;16.50;10.50;;;;;;;;5154915;27;8792;-43
2022/06/10 09:12:12;;;;;;;;;13.25;11.00;;;;;;;;5154982;27;8772;-43
2022/06/10 09:15:02;;;;;;;;;11.00;9.50;;;;;;;;5151935;27;8784;-45
2022/06/10 09:18:00;;;;;;;;;14.75;12.50;;;;;;;;5155415;27;8777;-48
2022/06/10 09:21:09;;;;;;;;;13.50;10.00;;;;;;;;5153445;27;8785;-46
2022/06/10 09:23:57;;;;;;;;;15.75;11.75;;;;;;;;5147626;27;9591;-43
2022/06/10 09:27:03;;;;;;;;;14.00;11.50;;;;;;;;5155264;27;8792;-46
2022/06/10 09:29:48;;;;;;;;;11.75;8.75;;;;;;;;5155088;27;8784;-43
2022/06/10 09:32:42;;;;;;;;;13.50;11.00;;;;;;;;5152446;27;8834;-47
2022/06/10 09:35:37;;;;;;;;;13.75;10.50;;;;;;;;5154837;27;8922;-44
2022/06/10 09:38:25;;;;;;;;;11.00;9.00;;;;;;;;5154666;27;8756;-42
2022/06/10 09:41:32;;;;;;;;;5.25;3.25;;;;;;;;5154845;27;8789;-42
2022/06/10 09:44:48;;;;;;;;;8.25;7.00;;;;;;;;5142824;27;9587;-42
2022/06/10 09:47:56;;;;;;;;;12.00;9.25;;;;;;;;5138051;27;8804;-43
2022/06/10 09:50:43;;;;;;;;;10.25;9.25;;;;;;;;5136738;27;8788;-42
2022/06/10 09:53:27;;;;;;;;;11.75;8.25;;;;;;;;5140522;27;8812;-46
2022/06/10 09:56:30;;;;;;;;;10.75;8.75;;;;;;;;5140694;27;8788;-44
2022/06/10 09:59:34;;;;;;;;;14.75;11.25;;;;;;;;5140223;27;8804;-44
2022/06/10 10:02:42;;;;;;;;;13.25;10.00;;;;;;;;5140563;27;9686;-44
2022/06/10 10:05:44;;;;;;;;;12.00;9.75;;;;;;;;5140039;27;8805;-44
2022/06/10 10:08:29;;;;;;;;;21.50;15.00;;;;;;;;5140440;27;8812;-43
2022/06/10 10:11:39;;;;;;;;;11.00;7.75;;;;;;;;5140242;27;8820;-44
2022/06/10 10:14:47;;;;;;;;;16.00;10.50;;;;;;;;5140354;27;8796;-45
2022/06/10 10:18:10;;;;;;;;;15.75;11.75;;;;;;;;5124090;27;8788;-44
2022/06/10 10:21:07;;;;;;;;;16.50;12.00;;;;;;;;5036553;28;8796;-45
2022/06/10 10:23:58;;;;;;;;;12.75;10.00;;;;;;;;5036437;28;8820;-42
2022/06/10 10:27:00;;;;;;;;;12.00;9.00;;;;;;;;5139388;27;8781;-46
2022/06/10 10:30:10;;;;;;;;;9.25;8.50;;;;;;;;5140240;27;8788;-45
2022/06/10 10:33:00;;;;;;;;;11.50;10.00;;;;;;;;5140246;27;8792;-44
2022/06/10 10:35:52;;;;;;;;;12.75;9.25;;;;;;;;5139693;27;8898;-43
2022/06/10 10:38:43;;;;;;;;;12.25;10.00;;;;;;;;5124768;27;9519;-45
2022/06/10 10:41:43;;;;;;;;;18.75;9.75;;;;;;;;5139650;27;8772;-42
2022/06/10 10:45:06;;;;;;;;;13.75;11.75;;;;;;;;5117813;27;9567;-46
2022/06/10 10:47:57;;;;;;;;;11.25;9.50;;;;;;;;5055564;28;8833;-45
2022/06/10 10:51:14;;;;;;;;;12.75;11.25;;;;;;;;5055741;28;9578;-45
2022/06/10 10:54:20;;;;;;;;;13.25;12.00;;;;;;;;5083904;27;8796;-45
2022/06/10 10:57:22;;;;;;;;;12.25;10.00;;;;;;;;5117778;27;9536;-45
2022/06/10 11:00:12;;;;;;;;;10.50;9.50;;;;;;;;5118858;27;8789;-45
2022/06/10 11:03:42;;;;;;;;;11.25;9.00;;;;;;;;5118735;27;8792;-44
2022/06/10 11:06:32;;;;;;;;;17.25;14.75;;;;;;;;5132159;27;8773;-47
2022/06/10 11:09:29;;;;;;;;;10.75;10.50;;;;;;;;5118571;27;8868;-42
2022/06/10 11:12:16;;;;;;;;;13.00;10.50;;;;;;;;5113280;27;8803;-47
2022/06/10 11:15:03;;;;;;;;;10.25;9.00;;;;;;;;5095283;28;8814;-45
2022/06/10 11:17:50;;;;;;;;;15.75;12.25;;;;;;;;5106550;27;8772;-44
2022/06/10 11:21:00;;;;;;;;;14.25;10.50;;;;;;;;5097750;28;8771;-45
2022/06/10 11:23:54;;;;;;;;;12.25;9.00;;;;;;;;5097847;28;8783;-43
2022/06/10 11:26:55;;;;;;;;;9.75;9.75;;;;;;;;5098028;28;8779;-44
2022/06/10 11:30:09;;;;;;;;;13.25;9.50;;;;;;;;5097638;28;8783;-44
2022/06/10 11:32:57;;;;;;;;;14.25;9.00;;;;;;;;5050939;28;8815;-44
2022/06/10 11:35:57;;;;;;;;;11.75;9.25;;;;;;;;5096745;28;8791;-45
2022/06/10 11:38:51;;;;;;;;;10.75;10.00;;;;;;;;5107265;27;8784;-43
2022/06/10 11:41:39;;;;;;;;;19.25;11.50;;;;;;;;5118251;27;8856;-41
2022/06/10 11:44:29;;;;;;;;;17.50;16.50;;;;;;;;5125927;27;8777;-43
2022/06/10 11:47:16;;;;;;;;;15.75;11.25;;;;;;;;5139068;27;8785;-43
2022/06/10 11:50:20;;;;;;;;;13.50;11.75;;;;;;;;5139112;27;8773;-46
2022/06/10 11:53:27;;;;;;;;;14.25;12.25;;;;;;;;5138544;27;8808;-45
2022/06/10 11:59:51;;;;;;;;;16.00;15.00;;;;;;;;5116526;27;9543;-43
2022/06/10 12:02:35;;;;;;;;;16.25;14.50;;;;;;;;5138353;27;8797;-43
2022/06/10 12:05:48;;;;;;;;;32.50;28.25;;;;;;;;5138265;27;8789;-43
2022/06/10 12:09:10;;;;;;;;;23.25;17.25;;;;;;;;5138272;27;8784;-43
2022/06/10 12:12:06;;;;;;;;;18.25;15.75;;;;;;;;5138357;27;8781;-42
2022/06/10 12:14:54;;;;;;;;;20.25;17.50;;;;;;;;5137247;27;8761;-46
2022/06/10 12:18:03;;;;;;;;;21.75;20.25;;;;;;;;5137756;27;8780;-43
2022/06/10 12:20:55;;;;;;;;;21.25;17.75;;;;;;;;5116876;27;8781;-43
2022/06/10 12:23:40;;;;;;;;;26.50;23.00;;;;;;;;5136502;27;8784;-45
2022/06/10 12:26:55;;;;;;;;;20.50;17.75;;;;;;;;5136158;27;8785;-41
2022/06/10 12:30:02;;;;;;;;;19.25;15.25;;;;;;;;5121535;27;8784;-43
2022/06/10 12:32:49;;;;;;;;;22.25;17.50;;;;;;;;5135329;27;8780;-42
2022/06/10 12:35:39;;;;;;;;;18.25;13.75;;;;;;;;5135259;27;8772;-45
2022/06/10 12:38:33;;;;;;;;;17.25;13.50;;;;;;;;5136493;27;8780;-43
2022/06/10 12:41:24;;;;;;;;;18.25;12.25;;;;;;;;5135113;27;8769;-43
2022/06/10 12:44:16;;;;;;;;;14.50;12.75;;;;;;;;5135782;27;8796;-44
2022/06/10 12:47:01;;;;;;;;;20.00;17.75;;;;;;;;5135706;27;8808;-43
2022/06/10 12:50:06;;;;;;;;;15.75;13.50;;;;;;;;5136252;27;8768;-43
2022/06/10 12:53:15;;;;;;;;;16.50;13.75;;;;;;;;5134855;27;8780;-43
2022/06/10 12:56:01;;;;;;;;;12.50;12.00;;;;;;;;5135954;27;8749;-43
2022/06/10 12:58:50;;;;;;;;;16.50;12.50;;;;;;;;5136098;27;8773;-43
2022/06/10 13:01:37;;;;;;;;;17.00;13.50;;;;;;;;5136483;27;8777;-43
2022/06/10 13:04:27;;;;;;;;;14.00;12.25;;;;;;;;5136084;27;8761;-48
2022/06/10 13:07:33;;;;;;;;;13.50;12.75;;;;;;;;5134725;27;8757;-48
2022/06/10 13:10:30;;;;;;;;;14.75;13.50;;;;;;;;5130742;27;8816;-43
2022/06/10 13:13:30;;;;;;;;;12.75;9.00;;;;;;;;5134262;27;9513;-42
2022/06/10 13:16:34;;;;;;;;;14.25;12.25;;;;;;;;5136270;27;8788;-44
2022/06/10 13:19:36;;;;;;;;;13.75;12.00;;;;;;;;5135750;27;9401;-43
2022/06/10 13:22:36;;;;;;;;;12.25;11.25;;;;;;;;5139206;27;8796;-43
2022/06/10 13:25:26;;;;;;;;;13.00;10.00;;;;;;;;5139843;27;8772;-42
2022/06/10 13:28:15;;;;;;;;;11.75;11.75;;;;;;;;5137496;27;9359;-43
2022/06/10 13:31:28;;;;;;;;;13.00;11.25;;;;;;;;5138582;27;8768;-44
2022/06/10 13:34:18;;;;;;;;;17.25;12.75;;;;;;;;5137878;27;8784;-46
2022/06/10 13:37:24;;;;;;;;;21.25;15.00;;;;;;;;5139210;27;8748;-43
2022/06/10 13:40:16;;;;;;;;;22.25;12.50;;;;;;;;5134261;27;8812;-47
2022/06/10 13:43:03;;;;;;;;;13.00;12.50;;;;;;;;5123073;27;8776;-44
2022/06/10 13:45:57;;;;;;;;;10.25;8.50;;;;;;;;5136708;27;8784;-43
2022/06/10 13:49:12;;;;;;;;;13.00;10.25;;;;;;;;5137658;27;8777;-44
2022/06/10 13:52:17;;;;;;;;;13.00;9.50;;;;;;;;5137950;27;9606;-46
2022/06/10 13:55:37;;;;;;;;;9.75;8.00;;;;;;;;5138871;27;8784;-48
2022/06/10 13:58:24;;;;;;;;;9.75;7.25;;;;;;;;5055468;28;8785;-43
2022/06/10 14:01:31;;;;;;;;;7.00;7.00;;;;;;;;5136908;27;8773;-46
2022/06/10 14:04:16;;;;;;;;;8.00;8.00;;;;;;;;5138947;27;8777;-45
2022/06/10 14:07:28;;;;;;;;;7.75;7.25;;;;;;;;5138518;27;8769;-47
2022/06/10 14:10:34;;;;;;;;;13.00;7.00;;;;;;;;5138761;27;8789;-45
2022/06/10 14:13:30;;;;;;;;;11.00;7.25;;;;;;;;5137590;27;8788;-44
2022/06/10 14:16:15;;;;;;;;;7.75;6.25;;;;;;;;5137374;27;8773;-44
2022/06/10 14:19:30;;;;;;;;;9.75;6.75;;;;;;;;5137255;27;8776;-45
2022/06/10 14:22:33;;;;;;;;;11.25;5.75;;;;;;;;5142275;27;8789;-45
2022/06/10 14:25:30;;;;;;;;;6.50;6.00;;;;;;;;5140203;27;9535;-45
2022/06/10 14:28:15;;;;;;;;;12.75;8.00;;;;;;;;5139923;27;8788;-45
2022/06/10 14:31:00;;;;;;;;;12.00;9.50;;;;;;;;5133828;27;8892;-46
2022/06/10 14:34:09;;;;;;;;;12.50;9.00;;;;;;;;5139519;27;8788;-48
2022/06/10 14:37:29;;;;;;;;;10.50;8.50;;;;;;;;5138557;27;9484;-42
2022/06/10 14:40:16;;;;;;;;;7.00;5.00;;;;;;;;5124049;27;8793;-45
2022/06/10 14:43:11;;;;;;;;;13.00;6.00;;;;;;;;5138480;27;8785;-42
2022/06/10 14:46:16;;;;;;;;;13.75;9.75;;;;;;;;5137354;27;8784;-46
2022/06/10 14:49:20;;;;;;;;;10.00;8.75;;;;;;;;5139639;27;9539;-45
2022/06/10 14:52:08;;;;;;;;;14.50;8.50;;;;;;;;5139384;27;8793;-46
2022/06/10 14:54:56;;;;;;;;;11.00;7.50;;;;;;;;5139887;27;8792;-43
2022/06/10 14:57:52;;;;;;;;;8.75;6.00;;;;;;;;5139727;27;8773;-44
2022/06/10 15:00:36;;;;;;;;;12.75;8.25;;;;;;;;5139377;27;9467;-50
2022/06/10 15:03:27;;;;;;;;;6.75;4.00;;;;;;;;5139624;27;8789;-45
2022/06/10 15:06:20;;;;;;;;;7.00;6.00;;;;;;;;5139658;27;8784;-45
2022/06/10 15:09:26;;;;;;;;;10.25;7.75;;;;;;;;5139264;27;8784;-44
2022/06/10 15:12:11;;;;;;;;;7.00;7.00;;;;;;;;5139356;27;8784;-44
2022/06/10 15:14:56;;;;;;;;;5.50;5.00;;;;;;;;5139459;27;8827;-46
2022/06/10 15:17:50;;;;;;;;;11.75;7.75;;;;;;;;5042096;28;8873;-44
2022/06/10 15:20:34;;;;;;;;;10.25;7.50;;;;;;;;5035705;28;8807;-45
2022/06/10 15:23:19;;;;;;;;;4.50;4.25;;;;;;;;5034959;28;8858;-45
2022/06/10 15:26:06;;;;;;;;;9.75;5.50;;;;;;;;5035078;28;8784;-46
2022/06/10 15:29:02;;;;;;;;;7.75;6.00;;;;;;;;5034798;28;8787;-43
2022/06/10 15:31:47;;;;;;;;;10.00;5.50;;;;;;;;5049240;28;8797;-46
2022/06/10 15:40:42;;;;;;;;;10.00;5.75;;;;;;;;5054652;28;8797;-44
2022/06/10 15:40:44;;;;;;;;;7.00;6.25;;;;;;;;5054544;28;8773;-45
2022/06/10 15:43:28;;;;;;;;;9.25;7.00;;;;;;;;5054380;28;8785;-46
2022/06/10 15:46:17;;;;;;;;;6.75;5.00;;;;;;;;5053934;28;9668;-43
2022/06/10 15:49:02;;;;;;;;;11.75;6.50;;;;;;;;5054537;28;8798;-43
2022/06/10 15:51:51;;;;;;;;;9.00;6.00;;;;;;;;5035228;28;8783;-44
2022/06/10 15:57:43;;;;;;;;;9.50;5.25;;;;;;;;5138716;27;8785;-45
2022/06/10 16:00:41;;;;;;;;;8.25;5.00;;;;;;;;5138581;27;9567;-43
2022/06/10 16:03:32;;;;;;;;;6.50;4.00;;;;;;;;5138419;27;8793;-45
2022/06/10 16:06:28;;;;;;;;;7.00;4.00;;;;;;;;5138528;27;8780;-46
2022/06/10 16:09:16;;;;;;;;;11.25;5.75;;;;;;;;5093875;27;8772;-43
2022/06/10 16:15:54;;;;;;;;;6.75;5.00;;;;;;;;5137961;27;8776;-47
2022/06/10 16:18:44;;;;;;;;;7.50;6.25;;;;;;;;5138397;27;8800;-46
2022/06/10 16:21:36;;;;;;;;;10.75;6.00;;;;;;;;5138308;27;8792;-46
2022/06/10 16:24:22;;;;;;;;;4.75;4.75;;;;;;;;5138122;27;9540;-45
2022/06/10 16:27:10;;;;;;;;;7.75;5.25;;;;;;;;5138439;27;9554;-47
2022/06/10 16:30:07;;;;;;;;;8.50;6.00;;;;;;;;5138036;27;8816;-47
2022/06/10 16:32:52;;;;;;;;;4.00;3.50;;;;;;;;5137947;27;8809;-44
2022/06/10 16:35:39;;;;;;;;;5.75;4.50;;;;;;;;5138225;27;8934;-44
2022/06/10 16:38:27;;;;;;;;;6.00;4.00;;;;;;;;5137785;27;8780;-43
2022/06/10 16:41:22;;;;;;;;;5.00;4.50;;;;;;;;5137957;27;8913;-45
2022/06/10 16:44:26;;;;;;;;;9.00;6.25;;;;;;;;5138049;27;8793;-43
2022/06/10 16:47:15;;;;;;;;;7.50;5.75;;;;;;;;5133238;27;8800;-43
2022/06/10 16:50:00;;;;;;;;;10.50;5.00;;;;;;;;5138059;27;8788;-45
2022/06/10 16:52:50;;;;;;;;;7.00;4.25;;;;;;;;5137702;27;8808;-44
2022/06/10 16:55:35;;;;;;;;;8.25;3.50;;;;;;;;5140949;27;8784;-46
2022/06/10 16:58:29;;;;;;;;;7.00;4.50;;;;;;;;5141890;27;8812;-47
2022/06/10 17:01:19;;;;;;;;;4.75;4.00;;;;;;;;5142011;27;10020;-44
2022/06/10 17:04:08;;;;;;;;;8.75;3.75;;;;;;;;5142050;27;9568;-49
2022/06/10 17:07:01;;;;;;;;;8.25;5.25;;;;;;;;5141511;27;8773;-44
2022/06/10 17:09:51;;;;;;;;;6.25;3.75;;;;;;;;5141587;27;8796;-47
2022/06/10 17:12:43;;;;;;;;;5.25;4.25;;;;;;;;5141756;27;8789;-44
2022/06/10 17:15:37;;;;;;;;;7.50;5.00;;;;;;;;5141579;27;8776;-48
2022/06/10 17:18:52;;;;;;;;;9.75;5.25;;;;;;;;5141345;27;8772;-47
2022/06/10 17:21:40;;;;;;;;;12.50;8.25;;;;;;;;5141351;27;8784;-45
2022/06/10 17:24:27;;;;;;;;;11.25;5.50;;;;;;;;5141635;27;8781;-45
2022/06/10 17:27:16;;;;;;;;;7.50;5.50;;;;;;;;5141501;27;8789;-45
2022/06/10 17:30:02;;;;;;;;;8.50;5.75;;;;;;;;5141451;27;8776;-46
2022/06/10 17:33:46;;;;;;;;;6.00;4.25;;;;;;;;5141270;27;8788;-44
2022/06/10 17:36:56;;;;;;;;;8.75;7.25;;;;;;;;4959571;28;8858;-45
2022/06/10 17:39:41;;;;;;;;;7.25;4.25;;;;;;;;4959262;28;8849;-44
2022/06/10 17:42:31;;;;;;;;;7.25;7.25;;;;;;;;4958986;28;8772;-46
2022/06/10 17:45:40;;;;;;;;;10.25;8.75;;;;;;;;4958718;28;8816;-45
2022/06/10 17:48:33;;;;;;;;;9.75;7.25;;;;;;;;4959724;28;8780;-47
2022/06/10 17:51:41;;;;;;;;;6.50;6.50;;;;;;;;4974355;28;9740;-44
2022/06/10 17:54:39;;;;;;;;;17.50;13.00;;;;;;;;5034245;28;8797;-45
2022/06/10 17:57:44;;;;;;;;;6.25;5.75;;;;;;;;5057050;28;8804;-44
2022/06/10 18:00:42;;;;;;;;;7.25;5.75;;;;;;;;5056780;28;8808;-43
2022/06/10 18:03:36;;;;;;;;;5.75;4.50;;;;;;;;5056594;28;8812;-43
2022/06/10 18:06:23;;;;;;;;;9.00;6.00;;;;;;;;5056349;28;8800;-45
2022/06/10 18:09:11;;;;;;;;;7.50;7.00;;;;;;;;5140714;27;8781;-44
2022/06/10 18:11:58;;;;;;;;;5.00;4.25;;;;;;;;5140386;27;8784;-47
2022/06/10 18:15:02;;;;;;;;;6.25;4.00;;;;;;;;5140556;27;8942;-44
2022/06/10 18:17:51;;;;;;;;;7.75;4.75;;;;;;;;5140545;27;8796;-43
2022/06/10 18:20:55;;;;;;;;;12.25;7.00;;;;;;;;5140083;27;8784;-46
2022/06/10 18:24:03;;;;;;;;;5.00;4.00;;;;;;;;5140181;27;8800;-42
2022/06/10 18:26:59;;;;;;;;;7.50;5.25;;;;;;;;5140337;27;8777;-45
2022/06/10 18:29:54;;;;;;;;;5.50;3.75;;;;;;;;5140657;27;8800;-44
2022/06/10 18:33:00;;;;;;;;;9.00;7.00;;;;;;;;5140142;27;8785;-45
2022/06/10 18:36:10;;;;;;;;;5.00;5.00;;;;;;;;5140277;27;8784;-46
2022/06/10 18:39:15;;;;;;;;;12.75;7.75;;;;;;;;5139776;27;8796;-43
2022/06/10 18:42:09;;;;;;;;;10.00;7.00;;;;;;;;5139592;27;8776;-45
2022/06/10 18:45:23;;;;;;;;;7.25;7.25;;;;;;;;5139907;27;8729;-45
2022/06/10 18:48:27;;;;;;;;;4.25;2.25;;;;;;;;5136039;27;8796;-46
2022/06/10 18:51:33;;;;;;;;;11.25;8.25;;;;;;;;5134301;27;8784;-45
2022/06/10 18:54:20;;;;;;;;;10.00;8.25;;;;;;;;5136963;27;8816;-44
2022/06/10 18:57:12;;;;;;;;;7.75;7.75;;;;;;;;5135516;27;9563;-47
2022/06/10 19:00:02;;;;;;;;;8.00;6.50;;;;;;;;5139557;27;8773;-47
2022/06/10 19:02:58;;;;;;;;;11.50;8.25;;;;;;;;5139250;27;8800;-44
2022/06/10 19:05:43;;;;;;;;;12.50;10.00;;;;;;;;5136175;27;8777;-43
2022/06/10 19:08:49;;;;;;;;;10.00;7.25;;;;;;;;5128845;27;8773;-43
2022/06/10 19:11:57;;;;;;;;;12.50;8.25;;;;;;;;5128295;27;8786;-44
2022/06/10 19:15:03;;;;;;;;;11.25;6.00;;;;;;;;5137791;27;8800;-44
2022/06/10 19:17:49;;;;;;;;;7.25;6.00;;;;;;;;5138338;27;8777;-45
2022/06/10 19:20:57;;;;;;;;;9.50;7.50;;;;;;;;5123111;27;8792;-45
2022/06/10 19:24:01;;;;;;;;;10.25;6.25;;;;;;;;5138863;27;8797;-44
2022/06/10 19:26:46;;;;;;;;;7.75;6.00;;;;;;;;5130915;27;8787;-44
2022/06/10 19:29:32;;;;;;;;;9.75;7.00;;;;;;;;5133475;27;8781;-43
2022/06/10 19:32:21;;;;;;;;;10.50;8.75;;;;;;;;5138865;27;8769;-43
2022/06/10 19:35:25;;;;;;;;;12.50;7.75;;;;;;;;5138679;27;8801;-44
2022/06/10 19:38:13;;;;;;;;;8.00;8.00;;;;;;;;5138176;27;8784;-45
2022/06/10 19:40:57;;;;;;;;;10.00;6.75;;;;;;;;5122374;27;8772;-46
2022/06/10 19:47:23;;;;;;;;;8.50;6.50;;;;;;;;5138383;27;8785;-43
2022/06/10 19:50:24;;;;;;;;;7.00;6.25;;;;;;;;5137552;27;8792;-44
2022/06/10 19:53:19;;;;;;;;;9.00;6.00;;;;;;;;5138076;27;8784;-44
2022/06/10 19:56:06;;;;;;;;;6.75;6.50;;;;;;;;5137861;27;8772;-43
2022/06/10 19:58:52;;;;;;;;;8.75;7.00;;;;;;;;5138465;27;8772;-45
2022/06/10 20:01:46;;;;;;;;;10.00;8.00;;;;;;;;5137754;27;8765;-44
2022/06/10 20:04:32;;;;;;;;;10.50;7.00;;;;;;;;5137921;27;8792;-47
2022/06/10 20:07:28;;;;;;;;;7.25;7.25;;;;;;;;5122271;27;8780;-44
2022/06/10 20:10:27;;;;;;;;;7.25;5.00;;;;;;;;5138053;27;8772;-45
2022/06/10 20:13:27;;;;;;;;;10.25;7.75;;;;;;;;5137683;27;8807;-43
2022/06/10 20:16:11;;;;;;;;;8.00;6.50;;;;;;;;5137373;27;8773;-44
2022/06/10 20:19:01;;;;;;;;;9.50;6.00;;;;;;;;5137934;27;8781;-44
2022/06/10 20:21:57;;;;;;;;;9.25;6.50;;;;;;;;5137375;27;8760;-46
2022/06/10 20:24:43;;;;;;;;;9.50;7.75;;;;;;;;5137730;27;8789;-44
2022/06/10 20:27:31;;;;;;;;;15.00;10.25;;;;;;;;5137617;27;8784;-46
2022/06/10 20:30:19;;;;;;;;;6.50;5.00;;;;;;;;5137289;27;8804;-45
2022/06/10 20:33:07;;;;;;;;;7.50;5.75;;;;;;;;5137820;27;8792;-43
2022/06/10 20:35:55;;;;;;;;;6.50;6.00;;;;;;;;5137714;27;8812;-44
2022/06/10 20:38:40;;;;;;;;;9.00;7.00;;;;;;;;5137803;27;8780;-46
2022/06/10 20:41:27;;;;;;;;;8.00;6.75;;;;;;;;5137374;27;9532;-43
2022/06/10 20:44:15;;;;;;;;;10.50;8.25;;;;;;;;5094219;27;8788;-46
2022/06/10 20:47:03;;;;;;;;;11.00;9.00;;;;;;;;5121957;27;8792;-44
2022/06/10 20:49:56;;;;;;;;;9.75;7.00;;;;;;;;5122004;27;8780;-43
2022/06/10 20:52:54;;;;;;;;;12.00;8.25;;;;;;;;5136782;27;8776;-44
2022/06/10 20:56:01;;;;;;;;;7.25;6.75;;;;;;;;5137354;27;8781;-44
2022/06/10 20:58:46;;;;;;;;;15.75;10.00;;;;;;;;5137500;27;8765;-43
2022/06/10 21:01:42;;;;;;;;;11.25;10.00;;;;;;;;5136449;27;8765;-46
2022/06/10 21:07:45;;;;;;;;;13.50;9.25;;;;;;;;5124562;27;8761;-44
2022/06/10 21:10:33;;;;;;;;;10.75;8.00;;;;;;;;5137658;27;8773;-44
2022/06/10 21:13:27;;;;;;;;;12.75;9.00;;;;;;;;5134657;27;8785;-43
2022/06/10 21:16:21;;;;;;;;;9.75;9.00;;;;;;;;5135808;27;8768;-44
2022/06/10 21:19:09;;;;;;;;;7.25;6.25;;;;;;;;5137542;27;8765;-46
2022/06/10 21:21:54;;;;;;;;;11.50;8.75;;;;;;;;5122074;27;9678;-44
2022/06/10 21:24:39;;;;;;;;;8.25;8.00;;;;;;;;5137575;27;8760;-44
2022/06/10 21:27:24;;;;;;;;;11.50;7.50;;;;;;;;5137341;27;8797;-45
2022/06/10 21:30:10;;;;;;;;;10.00;9.00;;;;;;;;5121596;27;8773;-47
2022/06/10 21:33:04;;;;;;;;;10.25;8.25;;;;;;;;5137692;27;8808;-44
2022/06/10 21:35:54;;;;;;;;;11.75;9.00;;;;;;;;5137570;27;8899;-46
2022/06/10 21:38:39;;;;;;;;;8.75;8.75;;;;;;;;5121623;27;8784;-44
2022/06/10 21:41:39;;;;;;;;;7.75;6.25;;;;;;;;5139742;27;8781;-45
2022/06/10 21:44:26;;;;;;;;;10.25;8.50;;;;;;;;5141304;27;8792;-45
2022/06/10 21:47:32;;;;;;;;;10.75;7.00;;;;;;;;5141046;27;8773;-43
2022/06/10 21:50:37;;;;;;;;;11.00;9.00;;;;;;;;5141183;27;8765;-45
2022/06/10 21:53:27;;;;;;;;;6.25;6.25;;;;;;;;5141261;27;8788;-43
2022/06/10 21:56:25;;;;;;;;;13.25;6.75;;;;;;;;5140896;27;8781;-44
2022/06/10 21:59:20;;;;;;;;;7.00;7.00;;;;;;;;5140951;27;8788;-46
2022/06/10 22:02:09;;;;;;;;;9.25;7.50;;;;;;;;5140940;27;8781;-44
2022/06/10 22:04:58;;;;;;;;;10.25;7.25;;;;;;;;5140692;27;9563;-45
2022/06/10 22:08:03;;;;;;;;;9.75;6.75;;;;;;;;5140695;27;8780;-44
2022/06/10 22:10:51;;;;;;;;;11.75;8.50;;;;;;;;5140468;27;8777;-44
2022/06/10 22:13:37;;;;;;;;;8.25;7.75;;;;;;;;5139372;27;8792;-45
2022/06/10 22:16:40;;;;;;;;;8.25;6.25;;;;;;;;5140417;27;8777;-43
2022/06/10 22:19:44;;;;;;;;;12.50;8.25;;;;;;;;5140699;27;8788;-47
2022/06/10 22:22:31;;;;;;;;;9.00;6.50;;;;;;;;5140501;27;8793;-44
2022/06/10 22:25:21;;;;;;;;;7.00;6.00;;;;;;;;5140309;27;8788;-46
2022/06/10 22:28:14;;;;;;;;;9.25;8.00;;;;;;;;5140276;27;9539;-46
2022/06/10 22:30:59;;;;;;;;;15.25;8.00;;;;;;;;5140510;27;8753;-44
2022/06/10 22:33:50;;;;;;;;;9.75;7.75;;;;;;;;5140124;27;8789;-43
2022/06/10 22:36:40;;;;;;;;;6.50;6.25;;;;;;;;5140033;27;8777;-44
2022/06/10 22:39:43;;;;;;;;;8.75;7.75;;;;;;;;5139901;27;8768;-46
2022/06/10 22:42:29;;;;;;;;;11.25;7.00;;;;;;;;5128932;27;8779;-44
2022/06/10 22:45:17;;;;;;;;;12.75;8.25;;;;;;;;5135781;27;8784;-45
2022/06/10 22:48:32;;;;;;;;;6.75;6.00;;;;;;;;5140985;27;9584;-44
2022/06/10 22:51:28;;;;;;;;;5.50;5.25;;;;;;;;5131062;27;8792;-46
2022/06/10 22:54:24;;;;;;;;;7.75;5.50;;;;;;;;5139522;27;8784;-47
2022/06/10 22:57:18;;;;;;;;;7.75;7.00;;;;;;;;5140052;27;8776;-46
2022/06/10 23:00:10;;;;;;;;;8.75;7.25;;;;;;;;5139735;27;8756;-44
2022/06/10 23:03:20;;;;;;;;;8.25;7.25;;;;;;;;5139460;27;8777;-43
2022/06/10 23:06:23;;;;;;;;;12.25;6.75;;;;;;;;5139032;27;8784;-45
2022/06/10 23:12:31;;;;;;;;;9.00;6.00;;;;;;;;5139430;27;8891;-47
2022/06/10 23:15:17;;;;;;;;;7.25;6.00;;;;;;;;5139384;27;8821;-43
2022/06/10 23:18:02;;;;;;;;;8.25;5.25;;;;;;;;5139549;27;8788;-45
2022/06/10 23:20:48;;;;;;;;;6.50;4.00;;;;;;;;5139408;27;9539;-43
2022/06/10 23:23:42;;;;;;;;;8.25;6.50;;;;;;;;5123905;27;8785;-43
2022/06/10 23:26:27;;;;;;;;;15.25;8.25;;;;;;;;5139276;27;8769;-43
2022/06/10 23:29:13;;;;;;;;;7.75;6.50;;;;;;;;5139370;27;8765;-44
2022/06/10 23:31:57;;;;;;;;;9.25;6.50;;;;;;;;5139381;27;8903;-46
2022/06/10 23:34:45;;;;;;;;;10.00;6.25;;;;;;;;5138469;27;8773;-45
2022/06/10 23:37:36;;;;;;;;;5.75;5.75;;;;;;;;5139267;27;8757;-43
2022/06/10 23:40:25;;;;;;;;;8.50;6.25;;;;;;;;5139075;27;8772;-45
2022/06/10 23:43:32;;;;;;;;;8.50;6.50;;;;;;;;5138878;27;8784;-44
2022/06/10 23:52:31;;;;;;;;;4.25;1.50;;;;;;;;5139050;27;8761;-44
2022/06/10 23:58:30;;;;;;;;;9.00;7.25;;;;;;;;5138251;27;8769;-45
